createdAt,value
2023-05-21T05:50:11.889Z,15.57
2023-05-21T05:51:15.396Z,15.68
2023-05-21T05:52:18.248Z,15.75
2023-05-21T05:53:20.310Z,15.81
2023-05-21T05:54:23.219Z,15.89
2023-05-21T05:55:26.816Z,15.91
2023-05-21T05:56:30.514Z,15.98
2023-05-21T05:57:32.353Z,16.02
2023-05-21T05:58:39.359Z,16.14
2023-05-21T05:59:44.759Z,16.23
2023-05-21T06:00:48.132Z,16.28
2023-05-21T06:01:50.268Z,16.35
2023-05-21T06:02:53.242Z,16.45
2023-05-21T06:03:55.467Z,16.58
2023-05-21T06:04:59.312Z,16.65
2023-05-21T06:06:02.705Z,16.73
2023-05-21T06:07:07.322Z,16.83
2023-05-21T06:08:10.417Z,16.82
2023-05-21T06:09:13.164Z,16.94
2023-05-21T06:10:15.084Z,17.02
2023-05-21T06:11:19.014Z,17.13
2023-05-21T06:12:21.199Z,17.23
2023-05-21T06:13:23.936Z,17.20
2023-05-21T06:14:25.853Z,17.32
2023-05-21T06:15:28.791Z,17.40
2023-05-21T06:16:31.626Z,17.48
2023-05-21T06:17:34.698Z,17.57
2023-05-21T06:18:37.884Z,17.57
2023-05-21T06:19:40.754Z,17.64
2023-05-21T06:20:42.688Z,17.71
2023-05-21T06:21:46.986Z,17.75
2023-05-21T06:22:48.859Z,17.75
2023-05-21T06:23:51.955Z,17.80
2023-05-21T06:24:53.863Z,17.94
2023-05-21T06:25:56.658Z,18.14
2023-05-21T06:26:59.819Z,18.18
2023-05-21T06:28:02.880Z,18.23
2023-05-21T06:29:06.011Z,18.30
2023-05-21T06:30:09.552Z,18.39
2023-05-21T06:31:11.960Z,18.40
2023-05-21T06:32:15.280Z,18.48
2023-05-21T06:33:17.525Z,18.57
2023-05-21T06:34:20.535Z,18.57
2023-05-21T06:35:22.520Z,18.59
2023-05-21T06:36:30.324Z,18.61
2023-05-21T06:37:34.964Z,18.62
2023-05-21T06:38:37.275Z,18.63
2023-05-21T06:39:40.057Z,18.55
2023-05-21T06:40:44.573Z,18.47
2023-05-21T06:41:49.967Z,18.43
2023-05-21T06:43:12.654Z,18.43
2023-05-21T06:44:15.641Z,18.29
2023-05-21T06:45:38.597Z,18.29
2023-05-21T06:46:58.074Z,18.40
2023-05-21T06:48:00.919Z,18.52
2023-05-21T06:49:02.817Z,18.61
2023-05-21T06:50:06.195Z,18.71
2023-05-21T06:51:08.202Z,18.57
2023-05-21T06:52:11.210Z,18.57
2023-05-21T06:53:16.550Z,18.60
2023-05-21T06:54:20.781Z,18.68
2023-05-21T06:55:22.919Z,18.77
2023-05-21T06:56:38.199Z,18.81
2023-05-21T06:57:40.048Z,18.79
2023-05-21T06:58:46.249Z,18.83
2023-05-21T06:59:48.047Z,18.87
2023-05-21T07:00:51.093Z,18.79
2023-05-21T07:01:53.158Z,18.79
2023-05-21T07:02:56.279Z,18.86
2023-05-21T07:03:58.511Z,19.00
2023-05-21T07:05:01.811Z,19.12
2023-05-21T07:06:03.966Z,19.16
2023-05-21T07:07:06.987Z,19.09
2023-05-21T07:08:10.617Z,19.18
2023-05-21T07:09:15.944Z,19.25
2023-05-21T07:10:17.947Z,19.31
2023-05-21T07:11:21.262Z,19.41
2023-05-21T07:12:23.967Z,19.45
2023-05-21T07:13:27.144Z,19.53
2023-05-21T07:14:29.988Z,19.58
2023-05-21T07:15:31.848Z,19.51
2023-05-21T07:16:34.804Z,19.40
2023-05-21T07:17:38.548Z,19.42
2023-05-21T07:18:40.506Z,19.37
2023-05-21T07:19:43.419Z,19.21
2023-05-21T07:20:46.640Z,19.17
2023-05-21T07:21:51.559Z,19.18
2023-05-21T07:22:53.345Z,19.14
2023-05-21T07:23:56.592Z,19.11
2023-05-21T07:25:00.282Z,19.12
2023-05-21T07:26:03.164Z,19.08
2023-05-21T07:27:17.713Z,19.03
2023-05-21T07:28:28.037Z,19.07
2023-05-21T07:29:29.922Z,19.05
2023-05-21T07:30:32.808Z,19.07
2023-05-21T07:31:37.704Z,19.04
2023-05-21T07:32:41.306Z,18.92
2023-05-21T07:33:43.234Z,18.96
2023-05-21T07:34:47.957Z,19.06
2023-05-21T07:35:49.905Z,19.16
2023-05-21T07:36:52.632Z,19.21
2023-05-21T07:37:54.576Z,19.28
2023-05-21T07:38:57.671Z,19.36
2023-05-21T07:40:00.772Z,19.36
2023-05-21T07:41:04.099Z,19.42
2023-05-21T07:42:06.192Z,19.54
2023-05-21T07:43:08.901Z,19.61
2023-05-21T07:44:15.279Z,19.60
2023-05-21T07:45:19.494Z,19.59
2023-05-21T07:46:21.489Z,19.69
2023-05-21T07:47:28.671Z,19.74
2023-05-21T07:48:33.524Z,19.76
2023-05-21T07:49:37.568Z,19.83
2023-05-21T07:50:40.333Z,19.95
2023-05-21T07:51:42.635Z,20.07
2023-05-21T07:52:45.728Z,20.13
2023-05-21T07:53:47.730Z,20.17
2023-05-21T07:54:52.808Z,20.11
2023-05-21T07:55:57.914Z,20.11
2023-05-21T07:57:03.942Z,20.12
2023-05-21T07:58:23.363Z,20.11
2023-05-21T07:59:25.430Z,20.12
2023-05-21T08:00:28.372Z,20.10
2023-05-21T08:01:34.109Z,20.07
2023-05-21T08:02:36.352Z,19.91
2023-05-21T08:03:39.405Z,19.75
2023-05-21T08:04:42.474Z,19.73
2023-05-21T08:05:48.925Z,19.78
2023-05-21T08:06:52.009Z,19.81
2023-05-21T08:07:54.830Z,19.79
2023-05-21T08:08:57.471Z,19.90
2023-05-21T08:10:02.552Z,20.01
2023-05-21T08:11:06.414Z,20.09
2023-05-21T08:12:10.593Z,20.19
2023-05-21T08:13:13.006Z,20.16
2023-05-21T08:14:15.799Z,20.28
2023-05-21T08:15:17.694Z,20.39
2023-05-21T08:16:23.355Z,20.47
2023-05-21T08:17:29.464Z,20.49
2023-05-21T08:18:31.521Z,20.52
2023-05-21T08:19:34.440Z,20.61
2023-05-21T08:20:36.689Z,20.57
2023-05-21T08:21:39.511Z,20.58
2023-05-21T08:22:41.545Z,20.55
2023-05-21T08:23:44.582Z,20.50
2023-05-21T08:24:46.662Z,20.56
2023-05-21T08:25:49.426Z,20.57
2023-05-21T08:26:52.625Z,20.56
2023-05-21T08:27:56.313Z,20.58
2023-05-21T08:28:59.268Z,20.59
2023-05-21T08:30:01.135Z,20.62
2023-05-21T08:31:03.922Z,20.71
2023-05-21T08:32:11.588Z,20.83
2023-05-21T08:33:15.188Z,20.96
2023-05-21T08:34:18.642Z,21.10
2023-05-21T08:35:30.469Z,21.19
2023-05-21T08:36:39.264Z,21.36
2023-05-21T08:37:51.350Z,21.48
2023-05-21T08:39:03.425Z,21.57
2023-05-21T08:40:12.569Z,21.68
2023-05-21T08:41:22.216Z,21.69
2023-05-21T08:42:37.827Z,21.76
2023-05-21T08:43:41.368Z,21.83
2023-05-21T08:44:48.799Z,21.92
2023-05-21T08:45:54.805Z,21.91
2023-05-21T08:47:02.597Z,21.84
2023-05-21T08:48:05.696Z,21.83
2023-05-21T08:49:13.279Z,21.72
2023-05-21T08:50:18.284Z,21.63
2023-05-21T08:51:25.095Z,21.49
2023-05-21T08:52:28.182Z,21.53
2023-05-21T08:53:31.326Z,21.53
2023-05-21T08:54:36.916Z,21.55
2023-05-21T08:55:42.689Z,21.49
2023-05-21T08:56:47.067Z,21.49
2023-05-21T08:57:55.396Z,21.57
2023-05-21T08:58:59.701Z,21.69
2023-05-21T09:00:08.207Z,21.81
2023-05-21T09:01:12.311Z,21.87
2023-05-21T09:02:18.332Z,21.95
2023-05-21T09:03:22.579Z,21.99
2023-05-21T09:04:27.620Z,22.08
2023-05-21T09:05:32.009Z,22.19
2023-05-21T09:06:34.307Z,22.23
2023-05-21T09:07:43.876Z,22.36
2023-05-21T09:09:07.626Z,22.51
2023-05-21T09:10:19.379Z,22.51
2023-05-21T09:11:21.675Z,22.44
2023-05-21T09:12:30.532Z,22.48
2023-05-21T09:13:39.251Z,22.63
2023-05-21T09:14:49.104Z,22.69
2023-05-21T09:15:53.769Z,22.70
2023-05-21T09:16:58.081Z,22.85
2023-05-21T09:18:00.257Z,22.94
2023-05-21T09:19:14.014Z,23.07
2023-05-21T09:20:16.745Z,23.15
2023-05-21T09:21:27.225Z,23.13
2023-05-21T09:22:33.153Z,22.86
2023-05-21T09:23:38.732Z,22.93
2023-05-21T09:24:41.990Z,22.86
2023-05-21T09:25:47.349Z,22.87
2023-05-21T09:26:58.379Z,22.86
2023-05-21T09:28:01.671Z,22.81
2023-05-21T09:29:05.803Z,22.84
2023-05-21T09:30:11.269Z,22.97
2023-05-21T09:31:14.161Z,23.11
2023-05-21T09:32:17.791Z,23.31
2023-05-21T09:33:26.685Z,23.43
2023-05-21T09:34:28.974Z,23.51
2023-05-21T09:35:31.978Z,23.62
2023-05-21T09:36:38.421Z,23.54
2023-05-21T09:37:43.993Z,23.58
2023-05-21T09:38:46.372Z,23.44
2023-05-21T09:39:49.582Z,23.31
2023-05-21T09:40:51.663Z,23.33
2023-05-21T09:41:54.490Z,23.36
2023-05-21T09:42:56.318Z,23.37
2023-05-21T09:44:00.823Z,23.34
2023-05-21T09:45:05.004Z,23.23
2023-05-21T09:46:08.404Z,23.31
2023-05-21T09:47:11.059Z,23.43
2023-05-21T09:48:14.665Z,23.59
2023-05-21T09:49:26.169Z,23.71
2023-05-21T09:50:29.587Z,23.89
2023-05-21T09:51:32.420Z,24.06
2023-05-21T09:52:38.660Z,24.28
2023-05-21T09:53:48.671Z,24.32
2023-05-21T09:54:53.286Z,24.56
2023-05-21T09:55:58.001Z,24.63
2023-05-21T09:57:02.489Z,24.50
2023-05-21T09:58:05.905Z,24.42
2023-05-21T09:59:07.762Z,24.37
2023-05-21T10:00:20.123Z,24.37
2023-05-21T10:01:22.468Z,24.27
2023-05-21T10:02:26.831Z,23.76
2023-05-21T10:03:31.150Z,23.62
2023-05-21T10:04:34.374Z,23.67
2023-05-21T10:05:37.393Z,23.79
2023-05-21T10:06:44.003Z,23.87
2023-05-21T10:07:50.268Z,23.88
2023-05-21T10:08:55.886Z,23.95
2023-05-21T10:09:57.896Z,23.82
2023-05-21T10:11:02.087Z,23.73
2023-05-21T10:12:04.591Z,23.61
2023-05-21T10:13:09.544Z,23.64
2023-05-21T10:14:16.373Z,23.54
2023-05-21T10:15:25.124Z,23.53
2023-05-21T10:16:27.957Z,23.60
2023-05-21T10:17:30.852Z,23.71
2023-05-21T10:18:34.714Z,23.50
2023-05-21T10:19:38.647Z,23.52
2023-05-21T10:20:42.090Z,23.61
2023-05-21T10:21:45.812Z,23.76
2023-05-21T10:22:49.298Z,23.76
2023-05-21T10:23:51.360Z,23.78
2023-05-21T10:24:55.034Z,23.77
2023-05-21T10:25:59.500Z,23.92
2023-05-21T10:27:02.431Z,24.14
2023-05-21T10:28:06.872Z,24.30
2023-05-21T10:29:10.019Z,24.34
2023-05-21T10:30:13.120Z,24.46
2023-05-21T10:31:16.635Z,24.55
2023-05-21T10:32:22.502Z,24.69
2023-05-21T10:33:26.934Z,24.84
2023-05-21T10:34:32.075Z,24.95
2023-05-21T10:35:34.432Z,25.05
2023-05-21T10:36:38.888Z,25.10
2023-05-21T10:37:43.426Z,25.03
2023-05-21T10:38:47.737Z,24.96
2023-05-21T10:39:52.761Z,24.89
2023-05-21T10:40:56.735Z,24.85
2023-05-21T10:42:11.008Z,24.93
2023-05-21T10:43:31.594Z,24.98
2023-05-21T10:44:45.250Z,24.73
2023-05-21T10:46:07.005Z,24.69
2023-05-21T10:47:29.036Z,24.76
2023-05-21T10:48:50.855Z,24.91
2023-05-21T10:50:09.308Z,25.17
2023-05-21T10:51:21.091Z,25.45
2023-05-21T10:52:40.232Z,25.64
2023-05-21T10:54:05.137Z,25.62
2023-05-21T10:55:17.885Z,25.54
2023-05-21T10:56:25.368Z,25.49
2023-05-21T10:57:46.457Z,25.42
2023-05-21T10:59:05.596Z,25.45
2023-05-21T11:00:09.564Z,25.43
2023-05-21T11:01:13.675Z,25.50
2023-05-21T11:02:19.565Z,25.39
2023-05-21T11:03:23.598Z,25.29
2023-05-21T11:04:27.100Z,25.02
2023-05-21T11:05:41.901Z,24.93
2023-05-21T11:06:48.494Z,24.93
2023-05-21T11:07:56.271Z,25.03
2023-05-21T11:09:01.957Z,25.20
2023-05-21T11:10:28.459Z,25.22
2023-05-21T11:11:42.880Z,25.16
2023-05-21T11:13:07.925Z,25.23
2023-05-21T11:14:26.310Z,25.45
2023-05-21T11:15:29.056Z,25.66
2023-05-21T11:16:31.808Z,25.81
2023-05-21T11:17:40.000Z,25.93
2023-05-21T11:18:58.491Z,26.02
2023-05-21T11:20:07.238Z,26.03
2023-05-21T11:21:10.378Z,25.98
2023-05-21T11:22:23.174Z,26.06
2023-05-21T11:23:48.713Z,26.21
2023-05-21T11:24:52.338Z,26.35
2023-05-21T11:26:01.300Z,26.44
2023-05-21T11:27:05.613Z,26.53
2023-05-21T11:28:09.534Z,26.57
2023-05-21T11:29:11.787Z,26.56
2023-05-21T11:30:17.795Z,26.65
2023-05-21T11:31:23.858Z,26.85
2023-05-21T11:32:26.700Z,27.08
2023-05-21T11:33:29.803Z,27.27
2023-05-21T11:34:39.353Z,27.39
2023-05-21T11:35:59.256Z,27.30
2023-05-21T11:37:25.096Z,27.36
2023-05-21T11:38:29.396Z,27.33
2023-05-21T11:39:40.260Z,27.26
2023-05-21T11:40:54.616Z,27.06
2023-05-21T11:41:59.107Z,26.89
2023-05-21T11:43:03.344Z,26.81
2023-05-21T11:44:08.651Z,26.75
2023-05-21T11:45:11.874Z,26.79
2023-05-21T11:46:14.390Z,26.72
2023-05-21T11:47:19.498Z,26.68
2023-05-21T11:48:27.247Z,26.63
2023-05-21T11:49:31.527Z,26.61
2023-05-21T11:50:35.296Z,26.63
2023-05-21T11:51:37.314Z,26.70
2023-05-21T11:52:41.821Z,26.76
2023-05-21T11:53:44.484Z,26.82
2023-05-21T11:54:50.538Z,26.85
2023-05-21T11:55:57.595Z,26.74
2023-05-21T11:57:00.890Z,26.66
2023-05-21T11:58:04.173Z,26.64
2023-05-21T11:59:14.259Z,26.62
2023-05-21T12:00:18.089Z,26.42
2023-05-21T12:01:22.825Z,26.32
2023-05-21T12:02:27.236Z,26.17
2023-05-21T12:03:30.417Z,25.99
2023-05-21T12:04:36.495Z,25.84
2023-05-21T12:05:46.136Z,25.82
2023-05-21T12:06:48.218Z,25.80
2023-05-21T12:07:51.116Z,25.74
2023-05-21T12:09:00.624Z,25.58
2023-05-21T12:10:03.690Z,25.48
2023-05-21T12:11:05.645Z,25.49
2023-05-21T12:12:09.993Z,25.49
2023-05-21T12:13:11.809Z,25.55
2023-05-21T12:14:15.140Z,25.62
2023-05-21T12:15:18.200Z,25.71
2023-05-21T12:16:21.320Z,25.61
2023-05-21T12:17:24.382Z,25.52
2023-05-21T12:18:27.661Z,25.51
2023-05-21T12:19:34.282Z,25.57
2023-05-21T12:20:37.423Z,25.63
2023-05-21T12:21:39.502Z,25.74
2023-05-21T12:22:44.110Z,25.77
2023-05-21T12:23:46.188Z,25.73
2023-05-21T12:24:49.373Z,25.56
2023-05-21T12:25:51.414Z,25.48
2023-05-21T12:26:55.036Z,25.56
2023-05-21T12:27:58.914Z,25.60
2023-05-21T12:29:02.098Z,25.70
2023-05-21T12:30:05.384Z,25.87
2023-05-21T12:31:07.170Z,25.93
2023-05-21T12:32:12.559Z,25.98
2023-05-21T12:33:17.890Z,25.98
2023-05-21T12:34:43.344Z,26.06
2023-05-21T12:35:48.697Z,26.17
2023-05-21T12:36:51.646Z,26.16
2023-05-21T12:37:54.378Z,26.08
2023-05-21T12:38:57.590Z,26.04
2023-05-21T12:40:01.920Z,25.89
2023-05-21T12:41:04.938Z,25.77
2023-05-21T12:42:08.405Z,25.78
2023-05-21T12:43:10.226Z,25.75
2023-05-21T12:44:12.974Z,25.81
2023-05-21T12:45:15.004Z,25.76
2023-05-21T12:46:18.854Z,25.80
2023-05-21T12:47:24.035Z,25.95
2023-05-21T12:48:27.077Z,26.08
2023-05-21T12:49:36.574Z,26.19
2023-05-21T12:50:42.144Z,26.36
2023-05-21T12:51:45.476Z,26.53
2023-05-21T12:52:48.482Z,26.61
2023-05-21T12:53:51.260Z,26.62
2023-05-21T12:54:54.364Z,26.54
2023-05-21T12:55:57.087Z,26.47
2023-05-21T12:57:06.204Z,26.41
2023-05-21T12:58:09.439Z,26.44
2023-05-21T12:59:14.424Z,26.58
2023-05-21T13:00:24.860Z,26.72
2023-05-21T13:01:26.679Z,26.74
2023-05-21T13:02:32.399Z,26.77
2023-05-21T13:03:34.460Z,26.79
2023-05-21T13:04:37.384Z,26.78
2023-05-21T13:05:42.424Z,26.83
2023-05-21T13:06:44.448Z,26.92
2023-05-21T13:07:48.178Z,26.99
2023-05-21T13:08:50.138Z,27.11
2023-05-21T13:09:53.455Z,27.00
2023-05-21T13:10:55.606Z,26.69
2023-05-21T13:11:58.328Z,26.60
2023-05-21T13:13:01.695Z,26.58
2023-05-21T13:14:03.554Z,26.68
2023-05-21T13:15:07.972Z,26.75
2023-05-21T13:16:10.760Z,26.80
2023-05-21T13:17:12.743Z,26.78
2023-05-21T13:18:16.208Z,26.87
2023-05-21T13:19:18.215Z,26.88
2023-05-21T13:20:21.806Z,26.86
2023-05-21T13:21:25.338Z,26.96
2023-05-21T13:22:28.134Z,27.06
2023-05-21T13:23:30.990Z,27.10
2023-05-21T13:24:32.909Z,27.08
2023-05-21T13:25:35.629Z,27.21
2023-05-21T13:26:37.608Z,27.21
2023-05-21T13:27:40.572Z,27.23
2023-05-21T13:28:43.423Z,27.20
2023-05-21T13:29:45.497Z,27.25
2023-05-21T13:30:48.382Z,27.16
2023-05-21T13:31:50.216Z,27.24
2023-05-21T13:32:53.286Z,27.27
2023-05-21T13:33:55.342Z,27.30
2023-05-21T13:34:58.578Z,27.34
2023-05-21T13:36:01.743Z,27.35
2023-05-21T13:37:05.043Z,27.36
2023-05-21T13:38:10.131Z,27.35
2023-05-21T13:39:12.401Z,27.34
2023-05-21T13:40:16.724Z,27.41
2023-05-21T13:41:19.610Z,27.42
2023-05-21T13:42:22.541Z,27.41
2023-05-21T13:43:24.509Z,27.56
2023-05-21T13:44:27.254Z,27.69
2023-05-21T13:45:30.080Z,27.71
2023-05-21T13:46:32.006Z,27.79
2023-05-21T13:47:37.463Z,27.84
2023-05-21T13:48:43.196Z,27.97
2023-05-21T13:49:45.040Z,28.00
2023-05-21T13:50:47.880Z,27.99
2023-05-21T13:51:49.757Z,27.88
2023-05-21T13:52:54.137Z,27.67
2023-05-21T13:53:56.837Z,27.48
2023-05-21T13:54:59.856Z,27.23
2023-05-21T13:56:01.786Z,27.21
2023-05-21T13:57:05.024Z,27.29
2023-05-21T13:58:07.890Z,27.27
2023-05-21T13:59:09.920Z,27.21
2023-05-21T14:00:16.233Z,27.25
2023-05-21T14:01:19.207Z,27.33
2023-05-21T14:02:22.238Z,27.46
2023-05-21T14:03:25.152Z,27.51
2023-05-21T14:04:27.009Z,27.56
2023-05-21T14:05:29.750Z,27.49
2023-05-21T14:06:33.096Z,27.54
2023-05-21T14:07:35.018Z,27.39
2023-05-21T14:08:39.340Z,27.30
2023-05-21T14:09:42.267Z,27.24
2023-05-21T14:10:45.033Z,27.23
2023-05-21T14:11:47.761Z,27.29
2023-05-21T14:12:49.690Z,27.40
2023-05-21T14:13:52.561Z,27.48
2023-05-21T14:14:54.420Z,27.49
2023-05-21T14:15:57.123Z,27.52
2023-05-21T14:16:59.192Z,27.47
2023-05-21T14:18:02.256Z,27.43
2023-05-21T14:19:04.162Z,27.54
2023-05-21T14:20:08.043Z,27.59
2023-05-21T14:21:10.924Z,27.52
2023-05-21T14:22:13.648Z,27.30
2023-05-21T14:23:16.620Z,26.97
2023-05-21T14:24:20.185Z,26.82
2023-05-21T14:25:23.060Z,26.87
2023-05-21T14:26:25.083Z,26.90
2023-05-21T14:27:27.812Z,26.87
2023-05-21T14:28:29.736Z,26.84
2023-05-21T14:29:33.312Z,26.82
2023-05-21T14:30:35.310Z,26.82
2023-05-21T14:31:39.201Z,26.83
2023-05-21T14:32:42.025Z,26.86
2023-05-21T14:33:43.916Z,26.62
2023-05-21T14:34:48.785Z,26.60
2023-05-21T14:35:51.559Z,26.70
2023-05-21T14:36:53.404Z,26.76
2023-05-21T14:37:56.275Z,26.85
2023-05-21T14:38:58.164Z,27.01
2023-05-21T14:40:02.395Z,27.07
2023-05-21T14:41:06.335Z,27.14
2023-05-21T14:42:08.148Z,27.11
2023-05-21T14:43:11.022Z,26.99
2023-05-21T14:44:12.955Z,26.96
2023-05-21T14:45:19.220Z,26.97
2023-05-21T14:46:21.792Z,27.10
2023-05-21T14:47:24.688Z,27.12
2023-05-21T14:48:27.385Z,27.21
2023-05-21T14:49:29.279Z,27.37
2023-05-21T14:50:32.046Z,27.45
2023-05-21T14:51:33.872Z,27.58
2023-05-21T14:52:36.725Z,27.64
2023-05-21T14:53:39.827Z,27.64
2023-05-21T14:54:41.752Z,27.56
2023-05-21T14:55:46.707Z,27.47
2023-05-21T14:56:48.551Z,27.35
2023-05-21T14:57:51.420Z,27.39
2023-05-21T14:58:53.314Z,27.51
2023-05-21T14:59:56.248Z,27.61
2023-05-21T15:00:59.016Z,27.70
2023-05-21T15:02:01.188Z,27.78
2023-05-21T15:03:04.994Z,27.84
2023-05-21T15:04:07.829Z,27.74
2023-05-21T15:05:11.080Z,27.62
2023-05-21T15:06:13.870Z,27.69
2023-05-21T15:07:15.714Z,27.75
2023-05-21T15:08:18.740Z,27.78
2023-05-21T15:09:20.745Z,27.81
2023-05-21T15:10:24.391Z,27.89
2023-05-21T15:11:28.014Z,28.04
2023-05-21T15:12:30.877Z,28.14
2023-05-21T15:13:33.630Z,28.22
2023-05-21T15:14:36.574Z,28.19
2023-05-21T15:15:38.706Z,28.16
2023-05-21T15:16:41.730Z,28.14
2023-05-21T15:17:44.112Z,28.09
2023-05-21T15:18:47.046Z,28.19
2023-05-21T15:19:49.753Z,28.18
2023-05-21T15:20:51.626Z,28.20
2023-05-21T15:21:54.447Z,28.23
2023-05-21T15:23:15.428Z,28.25
2023-05-21T15:24:18.965Z,28.41
2023-05-21T15:25:21.976Z,28.39
2023-05-21T15:26:25.342Z,28.38
2023-05-21T15:27:29.320Z,28.42
2023-05-21T15:28:31.280Z,28.29
2023-05-21T15:29:34.007Z,27.98
2023-05-21T15:30:36.099Z,27.65
2023-05-21T15:31:39.436Z,27.63
2023-05-21T15:32:42.585Z,27.69
2023-05-21T15:33:44.554Z,27.77
2023-05-21T15:34:47.705Z,27.91
2023-05-21T15:35:49.749Z,27.98
2023-05-21T15:36:52.624Z,27.93
2023-05-21T15:37:54.454Z,28.09
2023-05-21T15:38:57.282Z,28.25
2023-05-21T15:40:02.135Z,28.32
2023-05-21T15:41:06.410Z,28.32
2023-05-21T15:42:09.097Z,28.44
2023-05-21T15:43:13.150Z,28.57
2023-05-21T15:44:15.323Z,28.64
2023-05-21T15:45:18.330Z,28.69
2023-05-21T15:46:20.284Z,28.82
2023-05-21T15:47:23.250Z,28.90
2023-05-21T15:48:26.277Z,28.94
2023-05-21T15:49:28.085Z,29.02
2023-05-21T15:50:31.013Z,29.04
2023-05-21T15:51:32.928Z,29.12
2023-05-21T15:52:35.839Z,29.22
2023-05-21T15:53:37.645Z,29.13
2023-05-21T15:54:40.814Z,29.10
2023-05-21T15:55:44.682Z,29.05
2023-05-21T15:56:46.690Z,29.07
2023-05-21T15:57:49.483Z,29.12
2023-05-21T15:58:52.703Z,29.06
2023-05-21T15:59:56.695Z,29.12
2023-05-21T16:00:59.057Z,29.11
2023-05-21T16:02:02.931Z,29.08
2023-05-21T16:03:05.662Z,29.08
2023-05-21T16:04:09.481Z,29.08
2023-05-21T16:05:12.434Z,29.14
2023-05-21T16:06:16.185Z,29.25
2023-05-21T16:07:20.022Z,29.32
2023-05-21T16:08:22.105Z,29.30
2023-05-21T16:09:25.249Z,29.14
2023-05-21T16:10:27.546Z,29.08
2023-05-21T16:11:31.217Z,29.07
2023-05-21T16:12:33.739Z,28.98
2023-05-21T16:13:37.372Z,28.83
2023-05-21T16:14:41.143Z,28.69
2023-05-21T16:15:45.059Z,28.72
2023-05-21T16:16:47.319Z,28.82
2023-05-21T16:17:50.623Z,28.91
2023-05-21T16:18:53.121Z,28.99
2023-05-21T16:19:56.013Z,28.92
2023-05-21T16:20:58.112Z,28.97
2023-05-21T16:22:01.984Z,29.01
2023-05-21T16:23:06.274Z,29.01
2023-05-21T16:24:09.141Z,28.80
2023-05-21T16:25:10.990Z,28.74
2023-05-21T16:26:13.893Z,28.66
2023-05-21T16:27:15.845Z,28.52
2023-05-21T16:28:18.708Z,28.41
2023-05-21T16:29:22.179Z,28.40
2023-05-21T16:30:25.972Z,28.41
2023-05-21T16:31:28.853Z,28.46
2023-05-21T16:32:31.215Z,28.41
2023-05-21T16:33:34.570Z,28.37
2023-05-21T16:34:37.007Z,28.35
2023-05-21T16:35:43.352Z,28.33
2023-05-21T16:36:45.946Z,28.41
2023-05-21T16:37:49.822Z,28.38
2023-05-21T16:38:53.148Z,28.21
2023-05-21T16:39:56.619Z,28.17
2023-05-21T16:40:59.384Z,28.15
2023-05-21T16:42:03.035Z,28.10
2023-05-21T16:43:05.490Z,28.11
2023-05-21T16:44:09.149Z,28.04
2023-05-21T16:45:19.795Z,28.09
2023-05-21T16:46:24.691Z,28.12
2023-05-21T16:47:27.413Z,28.11
2023-05-21T16:48:31.300Z,27.96
2023-05-21T16:49:34.042Z,28.02
2023-05-21T16:50:37.857Z,28.11
2023-05-21T16:51:40.434Z,28.23
2023-05-21T16:52:44.057Z,28.30
2023-05-21T16:53:46.686Z,28.38
2023-05-21T16:54:50.614Z,28.44
2023-05-21T16:55:53.431Z,28.26
2023-05-21T16:56:57.038Z,28.28
2023-05-21T16:57:59.806Z,28.36
2023-05-21T16:59:03.524Z,28.46
2023-05-21T17:00:08.028Z,28.56
2023-05-21T17:01:11.937Z,28.67
2023-05-21T17:02:16.365Z,28.76
2023-05-21T17:03:20.037Z,28.82
2023-05-21T17:04:22.744Z,28.78
2023-05-21T17:05:26.640Z,28.52
2023-05-21T17:06:29.536Z,28.41
2023-05-21T17:07:33.420Z,28.28
2023-05-21T17:08:36.978Z,28.27
2023-05-21T17:09:39.532Z,28.30
2023-05-21T17:10:43.270Z,28.27
2023-05-21T17:11:46.052Z,28.31
2023-05-21T17:12:49.893Z,28.36
2023-05-21T17:13:52.574Z,28.32
2023-05-21T17:14:56.308Z,28.28
2023-05-21T17:15:59.204Z,28.25
2023-05-21T17:17:02.997Z,28.23
2023-05-21T17:18:08.072Z,28.22
2023-05-21T17:19:10.751Z,28.17
2023-05-21T17:20:14.876Z,28.10
2023-05-21T17:21:18.745Z,28.11
2023-05-21T17:22:21.553Z,28.17
2023-05-21T17:23:25.165Z,28.16
2023-05-21T17:24:28.791Z,28.14
2023-05-21T17:25:34.310Z,28.12
2023-05-21T17:26:38.354Z,27.90
2023-05-21T17:27:41.961Z,27.80
2023-05-21T17:28:45.276Z,27.82
2023-05-21T17:29:47.160Z,27.86
2023-05-21T17:30:50.552Z,27.89
2023-05-21T17:31:53.513Z,27.87
2023-05-21T17:32:55.392Z,27.90
2023-05-21T17:34:00.339Z,27.84
2023-05-21T17:35:02.370Z,27.70
2023-05-21T17:36:05.524Z,27.64
2023-05-21T17:37:09.565Z,27.59
2023-05-21T17:38:12.383Z,27.55
2023-05-21T17:39:14.218Z,27.46
2023-05-21T17:40:20.354Z,27.35
2023-05-21T17:41:22.267Z,27.29
2023-05-21T17:42:25.113Z,27.24
2023-05-21T17:43:28.153Z,27.08
2023-05-21T17:44:29.948Z,26.91
2023-05-21T17:45:32.765Z,26.78
2023-05-21T17:46:34.656Z,26.76
2023-05-21T17:47:37.530Z,26.73
2023-05-21T17:48:39.494Z,26.58
2023-05-21T17:49:43.698Z,26.47
2023-05-21T17:50:48.008Z,26.44
2023-05-21T17:51:50.831Z,26.42
2023-05-21T17:52:52.626Z,26.41
2023-05-21T17:53:55.438Z,26.37
2023-05-21T17:54:57.408Z,26.32
2023-05-21T17:56:00.394Z,26.28
2023-05-21T17:57:02.384Z,26.21
2023-05-21T17:58:05.465Z,26.14
2023-05-21T17:59:07.786Z,26.05
2023-05-21T18:00:11.182Z,25.97
2023-05-21T18:01:14.560Z,25.85
2023-05-21T18:02:17.405Z,25.78
2023-05-21T18:03:19.779Z,25.70
2023-05-21T18:04:22.754Z,25.65
2023-05-21T18:05:26.937Z,25.57
2023-05-21T18:06:29.844Z,25.50
2023-05-21T18:07:31.887Z,25.42
2023-05-21T18:08:34.684Z,25.35
2023-05-21T18:09:36.512Z,25.25
2023-05-21T18:10:39.323Z,25.10
2023-05-21T18:11:43.389Z,25.02
2023-05-21T18:12:46.477Z,24.94
2023-05-21T18:13:48.428Z,24.84
2023-05-21T18:14:51.092Z,24.69
2023-05-21T18:15:52.927Z,24.51
2023-05-21T18:16:55.998Z,24.36
2023-05-21T18:17:57.969Z,24.23
2023-05-21T18:19:02.131Z,24.10
2023-05-21T18:20:04.658Z,24.13
2023-05-21T18:21:08.774Z,24.07
2023-05-21T18:22:12.143Z,23.98
2023-05-21T18:23:14.066Z,23.98
2023-05-21T18:24:16.948Z,23.92
2023-05-21T18:25:18.903Z,23.87
2023-05-21T18:26:22.169Z,23.80
2023-05-21T18:27:24.034Z,23.71
2023-05-21T18:28:27.589Z,23.68
2023-05-21T18:29:30.388Z,23.66
2023-05-21T18:30:32.308Z,23.57
2023-05-21T18:31:35.354Z,23.46
2023-05-21T18:32:38.968Z,23.38
2023-05-21T18:33:41.924Z,23.33
2023-05-21T18:34:43.989Z,23.29
2023-05-21T18:35:46.792Z,23.29
2023-05-21T18:36:49.990Z,23.28
2023-05-21T18:37:53.434Z,23.27
2023-05-21T18:38:55.254Z,23.26
2023-05-21T18:39:58.010Z,23.23
2023-05-21T18:41:00.049Z,23.18
2023-05-21T18:42:12.781Z,23.15
2023-05-21T18:43:17.779Z,23.10
2023-05-21T18:44:19.638Z,23.06
2023-05-21T18:45:22.503Z,23.03
2023-05-21T18:46:24.372Z,22.94
2023-05-21T18:47:27.220Z,22.87
2023-05-21T18:48:29.054Z,22.79
2023-05-21T18:49:33.924Z,22.71
2023-05-21T18:51:39.784Z,22.42
2023-05-21T18:52:42.922Z,22.31
2023-05-21T18:53:45.744Z,22.21
2023-05-21T18:54:47.626Z,22.13
2023-05-21T18:55:50.732Z,22.03
2023-05-21T18:56:52.743Z,21.95
2023-05-21T18:57:56.003Z,21.88
2023-05-21T18:58:57.951Z,21.83
2023-05-21T19:00:00.864Z,21.80
2023-05-21T19:01:03.720Z,21.66
2023-05-21T19:02:05.753Z,21.52
2023-05-21T19:03:08.744Z,21.47
2023-05-21T19:04:12.594Z,21.42
2023-05-21T19:05:15.739Z,21.38
2023-05-21T19:06:23.826Z,21.36
2023-05-21T19:07:25.787Z,21.24
2023-05-21T19:08:29.747Z,21.09
2023-05-21T19:09:31.522Z,20.97
2023-05-21T19:10:34.352Z,20.90
2023-05-21T19:11:37.439Z,20.83
2023-05-21T19:12:41.876Z,20.81
2023-05-21T19:13:43.712Z,20.78
2023-05-21T19:14:46.524Z,20.76
2023-05-21T19:15:48.901Z,20.73
2023-05-21T19:16:51.750Z,20.67
2023-05-21T19:17:53.762Z,20.64
2023-05-21T19:18:56.638Z,20.59
2023-05-21T19:19:58.557Z,20.56
2023-05-21T19:21:01.504Z,20.53
2023-05-21T19:22:04.494Z,20.49
2023-05-21T19:23:06.539Z,20.46
2023-05-21T19:24:10.803Z,20.46
2023-05-21T19:25:12.659Z,20.42
2023-05-21T19:26:15.433Z,20.33
2023-05-21T19:27:18.127Z,20.26
2023-05-21T19:28:21.170Z,20.19
2023-05-21T19:29:23.159Z,20.15
2023-05-21T19:30:25.926Z,20.11
2023-05-21T19:31:28.779Z,20.09
2023-05-21T19:32:31.478Z,20.06
2023-05-21T19:33:34.922Z,20.03
2023-05-21T19:34:37.299Z,19.96
2023-05-21T19:35:41.828Z,19.83
2023-05-21T19:36:52.860Z,19.75
2023-05-21T19:38:00.233Z,19.70
2023-05-21T19:39:04.991Z,19.67